sensor_id;sensor_type;location;lat;lon;timestamp;temperature;humidity
5779;DHT22;2916;49.798;10.022;2022-07-29T00:02:01;20.90;1.00
5779;DHT22;2916;49.798;10.022;2022-07-29T00:04:28;20.90;1.00
5779;DHT22;2916;49.798;10.022;2022-07-29T00:06:55;20.90;1.00
5779;DHT22;2916;49.798;10.022;2022-07-29T00:09:22;20.80;1.00
5779;DHT22;2916;49.798;10.022;2022-07-29T00:11:49;20.70;1.00
5779;DHT22;2916;49.798;10.022;2022-07-29T00:14:17;20.70;1.00
5779;DHT22;2916;49.798;10.022;2022-07-29T00:16:45;20.80;1.00
5779;DHT22;2916;49.798;10.022;2022-07-29T00:19:12;20.80;1.00
5779;DHT22;2916;49.798;10.022;2022-07-29T00:21:40;20.70;1.00
5779;DHT22;2916;49.798;10.022;2022-07-29T00:24:07;20.70;1.00
5779;DHT22;2916;49.798;10.022;2022-07-29T00:26:35;20.70;1.00
5779;DHT22;2916;49.798;10.022;2022-07-29T00:29:03;20.70;1.00
5779;DHT22;2916;49.798;10.022;2022-07-29T00:31:31;20.60;1.00
5779;DHT22;2916;49.798;10.022;2022-07-29T00:34:00;20.50;1.00
5779;DHT22;2916;49.798;10.022;2022-07-29T00:36:28;20.50;1.00
5779;DHT22;2916;49.798;10.022;2022-07-29T00:38:54;20.40;1.00
5779;DHT22;2916;49.798;10.022;2022-07-29T00:41:21;20.30;1.00
5779;DHT22;2916;49.798;10.022;2022-07-29T00:43:49;20.30;1.00
5779;DHT22;2916;49.798;10.022;2022-07-29T00:46:16;20.30;1.00
5779;DHT22;2916;49.798;10.022;2022-07-29T00:48:43;20.20;1.00
5779;DHT22;2916;49.798;10.022;2022-07-29T00:51:12;20.10;1.00
5779;DHT22;2916;49.798;10.022;2022-07-29T00:53:39;20.00;1.00
5779;DHT22;2916;49.798;10.022;2022-07-29T00:56:08;20.00;1.00
5779;DHT22;2916;49.798;10.022;2022-07-29T00:58:35;19.90;1.00
5779;DHT22;2916;49.798;10.022;2022-07-29T01:01:02;19.90;1.00
5779;DHT22;2916;49.798;10.022;2022-07-29T01:03:29;19.90;1.00
5779;DHT22;2916;49.798;10.022;2022-07-29T01:05:57;19.80;1.00
5779;DHT22;2916;49.798;10.022;2022-07-29T01:08:26;19.70;1.00
5779;DHT22;2916;49.798;10.022;2022-07-29T01:10:54;19.70;1.00
5779;DHT22;2916;49.798;10.022;2022-07-29T01:13:21;19.70;1.00
5779;DHT22;2916;49.798;10.022;2022-07-29T01:15:54;19.60;1.00
5779;DHT22;2916;49.798;10.022;2022-07-29T01:18:31;19.50;1.00
5779;DHT22;2916;49.798;10.022;2022-07-29T01:21:18;19.40;1.00
5779;DHT22;2916;49.798;10.022;2022-07-29T01:24:14;19.40;1.00
5779;DHT22;2916;49.798;10.022;2022-07-29T01:26:59;19.30;1.00
5779;DHT22;2916;49.798;10.022;2022-07-29T01:29:40;19.40;1.00
5779;DHT22;2916;49.798;10.022;2022-07-29T01:32:12;19.30;1.00
5779;DHT22;2916;49.798;10.022;2022-07-29T01:34:50;19.20;1.00
5779;DHT22;2916;49.798;10.022;2022-07-29T01:37:24;19.30;1.00
5779;DHT22;2916;49.798;10.022;2022-07-29T01:39:57;19.20;1.00
5779;DHT22;2916;49.798;10.022;2022-07-29T01:42:30;19.20;1.00
5779;DHT22;2916;49.798;10.022;2022-07-29T01:45:10;19.20;1.00
5779;DHT22;2916;49.798;10.022;2022-07-29T01:47:44;19.20;1.00
5779;DHT22;2916;49.798;10.022;2022-07-29T01:50:17;19.10;1.00
5779;DHT22;2916;49.798;10.022;2022-07-29T01:52:54;19.10;1.00
5779;DHT22;2916;49.798;10.022;2022-07-29T01:55:28;19.10;1.00
5779;DHT22;2916;49.798;10.022;2022-07-29T01:57:58;19.10;1.00
5779;DHT22;2916;49.798;10.022;2022-07-29T02:00:31;19.00;1.00
5779;DHT22;2916;49.798;10.022;2022-07-29T02:03:02;19.00;1.00
5779;DHT22;2916;49.798;10.022;2022-07-29T02:05:35;19.00;1.00
5779;DHT22;2916;49.798;10.022;2022-07-29T02:08:06;18.80;1.00
5779;DHT22;2916;49.798;10.022;2022-07-29T02:10:37;18.90;1.00
5779;DHT22;2916;49.798;10.022;2022-07-29T02:13:07;18.80;1.00
5779;DHT22;2916;49.798;10.022;2022-07-29T02:15:41;18.90;1.00
5779;DHT22;2916;49.798;10.022;2022-07-29T02:18:13;18.90;1.00
5779;DHT22;2916;49.798;10.022;2022-07-29T02:20:45;18.80;1.00
5779;DHT22;2916;49.798;10.022;2022-07-29T02:23:19;18.90;1.00
5779;DHT22;2916;49.798;10.022;2022-07-29T02:25:49;18.80;1.00
5779;DHT22;2916;49.798;10.022;2022-07-29T02:28:21;18.80;1.00
5779;DHT22;2916;49.798;10.022;2022-07-29T02:30:53;18.80;1.00
5779;DHT22;2916;49.798;10.022;2022-07-29T02:33:25;18.70;1.00
5779;DHT22;2916;49.798;10.022;2022-07-29T02:35:54;18.70;1.00
5779;DHT22;2916;49.798;10.022;2022-07-29T02:38:23;18.70;1.00
5779;DHT22;2916;49.798;10.022;2022-07-29T02:41:15;18.70;1.00
5779;DHT22;2916;49.798;10.022;2022-07-29T02:43:46;18.60;1.00
5779;DHT22;2916;49.798;10.022;2022-07-29T02:46:20;18.60;1.00
5779;DHT22;2916;49.798;10.022;2022-07-29T02:48:59;18.60;1.00
5779;DHT22;2916;49.798;10.022;2022-07-29T02:51:36;18.60;1.00
5779;DHT22;2916;49.798;10.022;2022-07-29T02:54:11;18.50;1.00
5779;DHT22;2916;49.798;10.022;2022-07-29T02:56:48;18.50;1.00
5779;DHT22;2916;49.798;10.022;2022-07-29T02:59:23;18.50;1.00
5779;DHT22;2916;49.798;10.022;2022-07-29T03:01:58;18.50;1.00
5779;DHT22;2916;49.798;10.022;2022-07-29T03:04:27;18.50;1.00
5779;DHT22;2916;49.798;10.022;2022-07-29T03:06:59;18.50;1.00
5779;DHT22;2916;49.798;10.022;2022-07-29T03:09:28;18.50;1.00
5779;DHT22;2916;49.798;10.022;2022-07-29T03:11:57;18.40;1.00
5779;DHT22;2916;49.798;10.022;2022-07-29T03:14:25;18.50;1.00
5779;DHT22;2916;49.798;10.022;2022-07-29T03:16:54;18.40;1.00
5779;DHT22;2916;49.798;10.022;2022-07-29T03:19:22;18.40;1.00
5779;DHT22;2916;49.798;10.022;2022-07-29T03:21:49;18.50;1.00
5779;DHT22;2916;49.798;10.022;2022-07-29T03:24:29;18.50;1.00
5779;DHT22;2916;49.798;10.022;2022-07-29T03:26:57;18.40;1.00
5779;DHT22;2916;49.798;10.022;2022-07-29T03:29:25;18.40;1.00
5779;DHT22;2916;49.798;10.022;2022-07-29T03:31:54;18.40;1.00
5779;DHT22;2916;49.798;10.022;2022-07-29T03:34:22;18.40;1.00
5779;DHT22;2916;49.798;10.022;2022-07-29T03:36:50;18.40;1.00
5779;DHT22;2916;49.798;10.022;2022-07-29T03:39:19;18.30;1.00
5779;DHT22;2916;49.798;10.022;2022-07-29T03:41:52;18.30;1.00
5779;DHT22;2916;49.798;10.022;2022-07-29T03:44:23;18.20;1.00
5779;DHT22;2916;49.798;10.022;2022-07-29T03:46:55;18.20;1.00
5779;DHT22;2916;49.798;10.022;2022-07-29T03:49:26;18.10;1.00
5779;DHT22;2916;49.798;10.022;2022-07-29T03:51:55;18.20;1.00
5779;DHT22;2916;49.798;10.022;2022-07-29T03:54:22;18.10;1.00
5779;DHT22;2916;49.798;10.022;2022-07-29T03:56:50;18.10;1.00
5779;DHT22;2916;49.798;10.022;2022-07-29T03:59:20;18.10;1.00
5779;DHT22;2916;49.798;10.022;2022-07-29T04:01:49;18.10;1.00
5779;DHT22;2916;49.798;10.022;2022-07-29T04:04:18;18.10;1.00
5779;DHT22;2916;49.798;10.022;2022-07-29T04:06:46;18.20;1.00
5779;DHT22;2916;49.798;10.022;2022-07-29T04:09:13;18.20;1.00
5779;DHT22;2916;49.798;10.022;2022-07-29T04:11:41;18.10;1.00
5779;DHT22;2916;49.798;10.022;2022-07-29T04:14:09;18.20;1.00
5779;DHT22;2916;49.798;10.022;2022-07-29T04:16:36;18.20;1.00
5779;DHT22;2916;49.798;10.022;2022-07-29T04:19:03;18.10;1.00
5779;DHT22;2916;49.798;10.022;2022-07-29T04:21:37;18.10;1.00
5779;DHT22;2916;49.798;10.022;2022-07-29T04:24:05;18.10;1.00
5779;DHT22;2916;49.798;10.022;2022-07-29T04:26:34;18.20;1.00
5779;DHT22;2916;49.798;10.022;2022-07-29T04:29:01;18.20;1.00
5779;DHT22;2916;49.798;10.022;2022-07-29T04:31:29;18.20;1.00
5779;DHT22;2916;49.798;10.022;2022-07-29T04:33:56;18.20;1.00
5779;DHT22;2916;49.798;10.022;2022-07-29T04:36:24;18.30;1.00
5779;DHT22;2916;49.798;10.022;2022-07-29T04:38:52;18.30;1.00
5779;DHT22;2916;49.798;10.022;2022-07-29T04:41:20;18.20;1.00
5779;DHT22;2916;49.798;10.022;2022-07-29T04:43:47;18.30;1.00
5779;DHT22;2916;49.798;10.022;2022-07-29T04:46:14;18.30;1.00
5779;DHT22;2916;49.798;10.022;2022-07-29T04:48:41;18.20;1.00
5779;DHT22;2916;49.798;10.022;2022-07-29T04:51:08;18.20;1.00
5779;DHT22;2916;49.798;10.022;2022-07-29T04:53:36;18.20;1.00
5779;DHT22;2916;49.798;10.022;2022-07-29T04:56:05;18.20;1.00
5779;DHT22;2916;49.798;10.022;2022-07-29T04:58:34;18.30;1.00
5779;DHT22;2916;49.798;10.022;2022-07-29T05:01:02;18.40;1.00
5779;DHT22;2916;49.798;10.022;2022-07-29T05:03:29;18.40;1.00
5779;DHT22;2916;49.798;10.022;2022-07-29T05:05:56;18.40;1.00
5779;DHT22;2916;49.798;10.022;2022-07-29T05:08:23;18.40;1.00
5779;DHT22;2916;49.798;10.022;2022-07-29T05:10:50;18.50;1.00
5779;DHT22;2916;49.798;10.022;2022-07-29T05:13:19;18.50;1.00
5779;DHT22;2916;49.798;10.022;2022-07-29T05:15:46;18.50;1.00
5779;DHT22;2916;49.798;10.022;2022-07-29T05:18:13;18.50;1.00
5779;DHT22;2916;49.798;10.022;2022-07-29T05:20:41;18.60;1.00
5779;DHT22;2916;49.798;10.022;2022-07-29T05:23:08;18.60;1.00
5779;DHT22;2916;49.798;10.022;2022-07-29T05:25:38;18.90;1.00
5779;DHT22;2916;49.798;10.022;2022-07-29T05:28:06;19.70;1.00
5779;DHT22;2916;49.798;10.022;2022-07-29T05:30:35;20.40;1.00
5779;DHT22;2916;49.798;10.022;2022-07-29T05:33:02;20.80;1.00
5779;DHT22;2916;49.798;10.022;2022-07-29T05:35:29;21.20;1.00
5779;DHT22;2916;49.798;10.022;2022-07-29T05:37:57;21.60;1.00
5779;DHT22;2916;49.798;10.022;2022-07-29T05:40:24;22.10;1.00
5779;DHT22;2916;49.798;10.022;2022-07-29T05:42:51;21.80;1.00
5779;DHT22;2916;49.798;10.022;2022-07-29T05:45:18;22.30;1.00
5779;DHT22;2916;49.798;10.022;2022-07-29T05:47:47;22.70;1.00
5779;DHT22;2916;49.798;10.022;2022-07-29T05:50:14;22.70;1.00
5779;DHT22;2916;49.798;10.022;2022-07-29T05:52:41;23.00;1.00
5779;DHT22;2916;49.798;10.022;2022-07-29T05:55:09;22.40;1.00
5779;DHT22;2916;49.798;10.022;2022-07-29T05:57:36;22.40;1.00
5779;DHT22;2916;49.798;10.022;2022-07-29T06:00:05;22.70;1.00
5779;DHT22;2916;49.798;10.022;2022-07-29T06:02:33;23.10;1.00
5779;DHT22;2916;49.798;10.022;2022-07-29T06:05:02;23.30;1.00
5779;DHT22;2916;49.798;10.022;2022-07-29T06:07:29;23.50;1.00
5779;DHT22;2916;49.798;10.022;2022-07-29T06:09:58;23.30;1.00
5779;DHT22;2916;49.798;10.022;2022-07-29T06:12:25;23.00;1.00
5779;DHT22;2916;49.798;10.022;2022-07-29T06:14:52;23.80;1.00
5779;DHT22;2916;49.798;10.022;2022-07-29T06:17:19;23.70;1.00
5779;DHT22;2916;49.798;10.022;2022-07-29T06:19:46;23.30;1.00
5779;DHT22;2916;49.798;10.022;2022-07-29T06:22:16;23.70;1.00
5779;DHT22;2916;49.798;10.022;2022-07-29T06:24:43;23.90;1.00
5779;DHT22;2916;49.798;10.022;2022-07-29T06:27:10;24.10;1.00
5779;DHT22;2916;49.798;10.022;2022-07-29T06:29:38;25.10;1.00
5779;DHT22;2916;49.798;10.022;2022-07-29T06:32:05;25.40;1.00
5779;DHT22;2916;49.798;10.022;2022-07-29T06:34:34;26.40;1.00
5779;DHT22;2916;49.798;10.022;2022-07-29T06:37:06;26.40;1.00
5779;DHT22;2916;49.798;10.022;2022-07-29T06:39:35;25.90;1.00
5779;DHT22;2916;49.798;10.022;2022-07-29T06:42:04;25.60;1.00
5779;DHT22;2916;49.798;10.022;2022-07-29T06:44:31;26.50;1.00
5779;DHT22;2916;49.798;10.022;2022-07-29T06:47:00;27.20;1.00
5779;DHT22;2916;49.798;10.022;2022-07-29T06:49:27;26.50;1.00
5779;DHT22;2916;49.798;10.022;2022-07-29T06:51:54;26.70;1.00
5779;DHT22;2916;49.798;10.022;2022-07-29T06:54:22;26.80;1.00
5779;DHT22;2916;49.798;10.022;2022-07-29T06:56:51;26.20;1.00
5779;DHT22;2916;49.798;10.022;2022-07-29T06:59:18;26.40;1.00
5779;DHT22;2916;49.798;10.022;2022-07-29T07:01:45;26.20;1.00
5779;DHT22;2916;49.798;10.022;2022-07-29T07:04:12;27.30;1.00
5779;DHT22;2916;49.798;10.022;2022-07-29T07:06:40;27.50;1.00
5779;DHT22;2916;49.798;10.022;2022-07-29T07:09:07;27.70;1.00
5779;DHT22;2916;49.798;10.022;2022-07-29T07:11:34;27.20;1.00
5779;DHT22;2916;49.798;10.022;2022-07-29T07:14:03;27.10;1.00
5779;DHT22;2916;49.798;10.022;2022-07-29T07:16:31;27.50;1.00
5779;DHT22;2916;49.798;10.022;2022-07-29T07:18:58;27.90;1.00
5779;DHT22;2916;49.798;10.022;2022-07-29T07:21:25;27.80;1.00
5779;DHT22;2916;49.798;10.022;2022-07-29T07:23:53;27.70;1.00
5779;DHT22;2916;49.798;10.022;2022-07-29T07:26:20;28.20;1.00
5779;DHT22;2916;49.798;10.022;2022-07-29T07:28:47;27.90;1.00
5779;DHT22;2916;49.798;10.022;2022-07-29T07:31:16;28.00;1.00
5779;DHT22;2916;49.798;10.022;2022-07-29T07:33:43;28.10;1.00
5779;DHT22;2916;49.798;10.022;2022-07-29T07:36:11;28.20;1.00
5779;DHT22;2916;49.798;10.022;2022-07-29T07:38:38;27.90;1.00
5779;DHT22;2916;49.798;10.022;2022-07-29T07:41:05;27.50;1.00
5779;DHT22;2916;49.798;10.022;2022-07-29T07:43:32;28.20;1.00
5779;DHT22;2916;49.798;10.022;2022-07-29T07:46:00;28.20;1.00
5779;DHT22;2916;49.798;10.022;2022-07-29T07:48:28;28.20;1.00
5779;DHT22;2916;49.798;10.022;2022-07-29T07:50:56;28.40;1.00
5779;DHT22;2916;49.798;10.022;2022-07-29T07:53:23;29.00;1.00
5779;DHT22;2916;49.798;10.022;2022-07-29T07:55:50;28.90;1.00
5779;DHT22;2916;49.798;10.022;2022-07-29T07:58:18;28.70;1.00
5779;DHT22;2916;49.798;10.022;2022-07-29T08:00:45;28.80;1.00
5779;DHT22;2916;49.798;10.022;2022-07-29T08:03:12;28.20;1.00
5779;DHT22;2916;49.798;10.022;2022-07-29T08:05:41;27.90;1.00
5779;DHT22;2916;49.798;10.022;2022-07-29T08:08:08;27.30;1.00
5779;DHT22;2916;49.798;10.022;2022-07-29T08:10:36;27.80;1.00
5779;DHT22;2916;49.798;10.022;2022-07-29T08:13:23;28.10;1.00
5779;DHT22;2916;49.798;10.022;2022-07-29T08:15:54;28.70;1.00
5779;DHT22;2916;49.798;10.022;2022-07-29T08:18:25;28.30;1.00
5779;DHT22;2916;49.798;10.022;2022-07-29T08:20:55;28.30;1.00
5779;DHT22;2916;49.798;10.022;2022-07-29T08:23:23;28.50;1.00
5779;DHT22;2916;49.798;10.022;2022-07-29T08:25:52;28.50;1.00
5779;DHT22;2916;49.798;10.022;2022-07-29T08:28:19;29.10;1.00
5779;DHT22;2916;49.798;10.022;2022-07-29T08:30:46;29.60;1.00
5779;DHT22;2916;49.798;10.022;2022-07-29T08:33:14;29.50;1.00
5779;DHT22;2916;49.798;10.022;2022-07-29T08:35:41;29.20;1.00
5779;DHT22;2916;49.798;10.022;2022-07-29T08:38:10;29.10;1.00
5779;DHT22;2916;49.798;10.022;2022-07-29T08:40:37;28.60;1.00
5779;DHT22;2916;49.798;10.022;2022-07-29T08:43:05;28.90;1.00
5779;DHT22;2916;49.798;10.022;2022-07-29T08:45:42;28.80;1.00
5779;DHT22;2916;49.798;10.022;2022-07-29T08:48:12;29.00;1.00
5779;DHT22;2916;49.798;10.022;2022-07-29T08:50:41;29.60;1.00
5779;DHT22;2916;49.798;10.022;2022-07-29T08:53:13;29.40;1.00
5779;DHT22;2916;49.798;10.022;2022-07-29T08:55:42;29.20;1.00
5779;DHT22;2916;49.798;10.022;2022-07-29T08:58:11;29.50;1.00
5779;DHT22;2916;49.798;10.022;2022-07-29T09:00:44;29.80;1.00
5779;DHT22;2916;49.798;10.022;2022-07-29T09:03:18;28.70;1.00
5779;DHT22;2916;49.798;10.022;2022-07-29T09:05:47;29.20;1.00
5779;DHT22;2916;49.798;10.022;2022-07-29T09:08:31;29.80;1.00
5779;DHT22;2916;49.798;10.022;2022-07-29T09:11:00;30.10;1.00
5779;DHT22;2916;49.798;10.022;2022-07-29T09:13:28;30.00;1.00
5779;DHT22;2916;49.798;10.022;2022-07-29T09:15:56;29.60;1.00
5779;DHT22;2916;49.798;10.022;2022-07-29T09:18:33;29.70;1.00
5779;DHT22;2916;49.798;10.022;2022-07-29T09:21:02;30.40;1.00
5779;DHT22;2916;49.798;10.022;2022-07-29T09:24:04;30.60;1.00
5779;DHT22;2916;49.798;10.022;2022-07-29T09:26:35;30.70;1.00
5779;DHT22;2916;49.798;10.022;2022-07-29T09:29:11;30.90;1.00
5779;DHT22;2916;49.798;10.022;2022-07-29T09:31:43;31.50;1.00
5779;DHT22;2916;49.798;10.022;2022-07-29T09:34:13;31.00;1.00
5779;DHT22;2916;49.798;10.022;2022-07-29T09:36:43;30.10;1.00
5779;DHT22;2916;49.798;10.022;2022-07-29T09:39:13;30.60;1.00
5779;DHT22;2916;49.798;10.022;2022-07-29T09:41:46;30.70;1.00
5779;DHT22;2916;49.798;10.022;2022-07-29T09:44:15;30.50;1.00
5779;DHT22;2916;49.798;10.022;2022-07-29T09:46:57;30.60;1.00
5779;DHT22;2916;49.798;10.022;2022-07-29T09:49:31;30.70;1.00
5779;DHT22;2916;49.798;10.022;2022-07-29T09:52:01;30.70;1.00
5779;DHT22;2916;49.798;10.022;2022-07-29T09:54:33;30.90;1.00
5779;DHT22;2916;49.798;10.022;2022-07-29T09:57:04;31.30;1.00
5779;DHT22;2916;49.798;10.022;2022-07-29T09:59:32;31.60;1.00
5779;DHT22;2916;49.798;10.022;2022-07-29T10:02:00;31.00;1.00
5779;DHT22;2916;49.798;10.022;2022-07-29T10:04:38;30.90;1.00
5779;DHT22;2916;49.798;10.022;2022-07-29T10:07:06;30.60;1.00
5779;DHT22;2916;49.798;10.022;2022-07-29T10:09:36;30.50;1.00
5779;DHT22;2916;49.798;10.022;2022-07-29T10:12:08;30.80;1.00
5779;DHT22;2916;49.798;10.022;2022-07-29T10:14:40;31.10;1.00
5779;DHT22;2916;49.798;10.022;2022-07-29T10:17:09;31.30;1.00
5779;DHT22;2916;49.798;10.022;2022-07-29T10:19:38;31.60;1.00
5779;DHT22;2916;49.798;10.022;2022-07-29T10:22:09;31.20;1.00
5779;DHT22;2916;49.798;10.022;2022-07-29T10:24:39;31.40;1.00
5779;DHT22;2916;49.798;10.022;2022-07-29T10:27:07;31.80;1.00
5779;DHT22;2916;49.798;10.022;2022-07-29T10:29:35;31.70;1.00
5779;DHT22;2916;49.798;10.022;2022-07-29T10:32:21;31.60;1.00
5779;DHT22;2916;49.798;10.022;2022-07-29T10:35:21;31.70;1.00
5779;DHT22;2916;49.798;10.022;2022-07-29T10:38:17;31.50;1.00
5779;DHT22;2916;49.798;10.022;2022-07-29T10:41:11;31.60;1.00
5779;DHT22;2916;49.798;10.022;2022-07-29T10:43:58;31.10;1.00
5779;DHT22;2916;49.798;10.022;2022-07-29T10:46:28;31.10;1.00
5779;DHT22;2916;49.798;10.022;2022-07-29T10:49:09;31.10;1.00
5779;DHT22;2916;49.798;10.022;2022-07-29T10:52:02;31.30;1.00
5779;DHT22;2916;49.798;10.022;2022-07-29T10:54:42;31.40;1.00
5779;DHT22;2916;49.798;10.022;2022-07-29T10:57:19;31.50;1.00
5779;DHT22;2916;49.798;10.022;2022-07-29T10:59:48;31.50;1.00
5779;DHT22;2916;49.798;10.022;2022-07-29T11:02:42;31.90;1.00
5779;DHT22;2916;49.798;10.022;2022-07-29T11:05:12;31.50;1.00
5779;DHT22;2916;49.798;10.022;2022-07-29T11:08:19;30.00;1.00
5779;DHT22;2916;49.798;10.022;2022-07-29T11:10:49;30.90;1.00
5779;DHT22;2916;49.798;10.022;2022-07-29T11:13:47;30.60;1.00
5779;DHT22;2916;49.798;10.022;2022-07-29T11:16:17;30.80;1.00
5779;DHT22;2916;49.798;10.022;2022-07-29T11:19:18;31.10;1.00
5779;DHT22;2916;49.798;10.022;2022-07-29T11:21:47;31.30;1.00
5779;DHT22;2916;49.798;10.022;2022-07-29T11:24:17;31.30;1.00
5779;DHT22;2916;49.798;10.022;2022-07-29T11:27:10;31.30;1.00
5779;DHT22;2916;49.798;10.022;2022-07-29T11:29:51;31.50;1.00
5779;DHT22;2916;49.798;10.022;2022-07-29T11:32:21;31.20;1.00
5779;DHT22;2916;49.798;10.022;2022-07-29T11:35:10;31.00;1.00
5779;DHT22;2916;49.798;10.022;2022-07-29T11:37:40;31.20;1.00
5779;DHT22;2916;49.798;10.022;2022-07-29T11:40:17;31.10;1.00
5779;DHT22;2916;49.798;10.022;2022-07-29T11:42:51;31.00;1.00
5779;DHT22;2916;49.798;10.022;2022-07-29T11:45:45;31.60;1.00
5779;DHT22;2916;49.798;10.022;2022-07-29T11:48:17;31.60;1.00
5779;DHT22;2916;49.798;10.022;2022-07-29T11:50:45;31.60;1.00
5779;DHT22;2916;49.798;10.022;2022-07-29T11:53:13;31.20;1.00
5779;DHT22;2916;49.798;10.022;2022-07-29T11:55:41;31.20;1.00
5779;DHT22;2916;49.798;10.022;2022-07-29T11:58:09;31.20;1.00
5779;DHT22;2916;49.798;10.022;2022-07-29T12:00:39;31.40;1.00
5779;DHT22;2916;49.798;10.022;2022-07-29T12:03:10;30.70;1.00
5779;DHT22;2916;49.798;10.022;2022-07-29T12:05:40;31.00;1.00
5779;DHT22;2916;49.798;10.022;2022-07-29T12:08:12;31.00;1.00
5779;DHT22;2916;49.798;10.022;2022-07-29T12:10:42;31.20;1.00
5779;DHT22;2916;49.798;10.022;2022-07-29T12:13:10;31.00;1.00
5779;DHT22;2916;49.798;10.022;2022-07-29T12:15:40;31.30;1.00
5779;DHT22;2916;49.798;10.022;2022-07-29T12:18:11;30.90;1.00
5779;DHT22;2916;49.798;10.022;2022-07-29T12:20:41;30.40;1.00
5779;DHT22;2916;49.798;10.022;2022-07-29T12:23:10;30.50;1.00
5779;DHT22;2916;49.798;10.022;2022-07-29T12:25:39;30.30;1.00
5779;DHT22;2916;49.798;10.022;2022-07-29T12:28:11;30.70;1.00
5779;DHT22;2916;49.798;10.022;2022-07-29T12:30:44;30.90;1.00
5779;DHT22;2916;49.798;10.022;2022-07-29T12:33:15;31.10;1.00
5779;DHT22;2916;49.798;10.022;2022-07-29T12:35:47;31.20;1.00
5779;DHT22;2916;49.798;10.022;2022-07-29T12:38:16;31.40;1.00
5779;DHT22;2916;49.798;10.022;2022-07-29T12:40:46;31.20;1.00
5779;DHT22;2916;49.798;10.022;2022-07-29T12:43:15;31.20;1.00
5779;DHT22;2916;49.798;10.022;2022-07-29T12:45:46;31.10;1.00
5779;DHT22;2916;49.798;10.022;2022-07-29T12:48:15;31.10;1.00
5779;DHT22;2916;49.798;10.022;2022-07-29T12:50:54;30.40;1.00
5779;DHT22;2916;49.798;10.022;2022-07-29T12:53:22;30.90;1.00
5779;DHT22;2916;49.798;10.022;2022-07-29T12:55:51;30.70;1.00
5779;DHT22;2916;49.798;10.022;2022-07-29T12:58:28;30.90;1.00
5779;DHT22;2916;49.798;10.022;2022-07-29T13:01:06;30.90;1.00
5779;DHT22;2916;49.798;10.022;2022-07-29T13:03:57;30.90;1.00
5779;DHT22;2916;49.798;10.022;2022-07-29T13:06:28;30.80;1.00
5779;DHT22;2916;49.798;10.022;2022-07-29T13:09:05;30.90;1.00
5779;DHT22;2916;49.798;10.022;2022-07-29T13:11:36;30.90;1.00
5779;DHT22;2916;49.798;10.022;2022-07-29T13:14:07;30.60;1.00
5779;DHT22;2916;49.798;10.022;2022-07-29T13:16:59;30.70;1.00
5779;DHT22;2916;49.798;10.022;2022-07-29T13:19:34;30.50;1.00
5779;DHT22;2916;49.798;10.022;2022-07-29T13:22:03;30.40;1.00
5779;DHT22;2916;49.798;10.022;2022-07-29T13:24:31;30.20;1.00
5779;DHT22;2916;49.798;10.022;2022-07-29T13:26:58;30.30;1.00
5779;DHT22;2916;49.798;10.022;2022-07-29T13:29:25;30.00;1.00
5779;DHT22;2916;49.798;10.022;2022-07-29T13:31:54;30.00;1.00
5779;DHT22;2916;49.798;10.022;2022-07-29T13:34:22;30.00;1.00
5779;DHT22;2916;49.798;10.022;2022-07-29T13:36:50;29.90;1.00
5779;DHT22;2916;49.798;10.022;2022-07-29T13:39:17;30.00;1.00
5779;DHT22;2916;49.798;10.022;2022-07-29T13:41:44;30.00;1.00
5779;DHT22;2916;49.798;10.022;2022-07-29T13:44:12;30.00;1.00
5779;DHT22;2916;49.798;10.022;2022-07-29T13:46:39;29.80;1.00
5779;DHT22;2916;49.798;10.022;2022-07-29T13:49:08;29.80;1.00
5779;DHT22;2916;49.798;10.022;2022-07-29T13:51:36;29.50;1.00
5779;DHT22;2916;49.798;10.022;2022-07-29T13:54:04;29.30;1.00
5779;DHT22;2916;49.798;10.022;2022-07-29T13:56:32;29.10;1.00
5779;DHT22;2916;49.798;10.022;2022-07-29T13:58:59;29.10;1.00
5779;DHT22;2916;49.798;10.022;2022-07-29T14:01:27;29.10;1.00
5779;DHT22;2916;49.798;10.022;2022-07-29T14:03:55;29.10;1.00
5779;DHT22;2916;49.798;10.022;2022-07-29T14:06:24;29.20;1.00
5779;DHT22;2916;49.798;10.022;2022-07-29T14:08:51;29.10;1.00
5779;DHT22;2916;49.798;10.022;2022-07-29T14:11:19;29.10;1.00
5779;DHT22;2916;49.798;10.022;2022-07-29T14:13:46;28.80;1.00
5779;DHT22;2916;49.798;10.022;2022-07-29T14:16:14;28.40;1.00
5779;DHT22;2916;49.798;10.022;2022-07-29T14:18:41;27.80;1.00
5779;DHT22;2916;49.798;10.022;2022-07-29T14:21:08;27.20;1.00
5779;DHT22;2916;49.798;10.022;2022-07-29T14:23:37;26.70;1.00
5779;DHT22;2916;49.798;10.022;2022-07-29T14:26:06;26.20;1.00
5779;DHT22;2916;49.798;10.022;2022-07-29T14:28:33;26.00;1.00
5779;DHT22;2916;49.798;10.022;2022-07-29T14:31:00;26.00;1.00
5779;DHT22;2916;49.798;10.022;2022-07-29T14:33:28;25.90;1.00
5779;DHT22;2916;49.798;10.022;2022-07-29T14:35:55;25.80;1.00
5779;DHT22;2916;49.798;10.022;2022-07-29T14:38:22;25.80;1.00
5779;DHT22;2916;49.798;10.022;2022-07-29T14:40:51;25.80;1.00
5779;DHT22;2916;49.798;10.022;2022-07-29T14:43:19;25.70;1.00
5779;DHT22;2916;49.798;10.022;2022-07-29T14:45:46;25.70;1.00
5779;DHT22;2916;49.798;10.022;2022-07-29T14:48:13;25.60;1.00
5779;DHT22;2916;49.798;10.022;2022-07-29T14:50:40;25.50;1.00
5779;DHT22;2916;49.798;10.022;2022-07-29T14:53:08;25.40;1.00
5779;DHT22;2916;49.798;10.022;2022-07-29T14:55:35;25.40;1.00
5779;DHT22;2916;49.798;10.022;2022-07-29T14:58:04;25.50;1.00
5779;DHT22;2916;49.798;10.022;2022-07-29T15:00:32;25.60;1.00
5779;DHT22;2916;49.798;10.022;2022-07-29T15:02:59;25.50;1.00
5779;DHT22;2916;49.798;10.022;2022-07-29T15:05:27;25.60;1.00
5779;DHT22;2916;49.798;10.022;2022-07-29T15:07:55;25.60;1.00
5779;DHT22;2916;49.798;10.022;2022-07-29T15:10:22;25.60;1.00
5779;DHT22;2916;49.798;10.022;2022-07-29T15:12:51;25.60;1.00
5779;DHT22;2916;49.798;10.022;2022-07-29T15:15:20;25.50;1.00
5779;DHT22;2916;49.798;10.022;2022-07-29T15:17:48;25.40;1.00
5779;DHT22;2916;49.798;10.022;2022-07-29T15:20:15;25.40;1.00
5779;DHT22;2916;49.798;10.022;2022-07-29T15:22:42;25.20;1.00
5779;DHT22;2916;49.798;10.022;2022-07-29T15:25:10;25.20;1.00
5779;DHT22;2916;49.798;10.022;2022-07-29T15:27:38;25.10;1.00
5779;DHT22;2916;49.798;10.022;2022-07-29T15:30:06;24.90;1.00
5779;DHT22;2916;49.798;10.022;2022-07-29T15:32:36;24.50;1.00
5779;DHT22;2916;49.798;10.022;2022-07-29T15:35:04;24.40;1.00
5779;DHT22;2916;49.798;10.022;2022-07-29T15:37:31;24.00;1.00
5779;DHT22;2916;49.798;10.022;2022-07-29T15:40:00;23.60;1.00
5779;DHT22;2916;49.798;10.022;2022-07-29T15:42:27;23.40;1.00
5779;DHT22;2916;49.798;10.022;2022-07-29T15:44:54;23.10;1.00
5779;DHT22;2916;49.798;10.022;2022-07-29T15:47:22;22.90;1.00
5779;DHT22;2916;49.798;10.022;2022-07-29T15:49:51;22.80;1.90
5779;DHT22;2916;49.798;10.022;2022-07-29T15:52:19;22.90;19.90
5779;DHT22;2916;49.798;10.022;2022-07-29T15:54:47;23.00;22.30
5779;DHT22;2916;49.798;10.022;2022-07-29T15:57:14;23.00;32.10
5779;DHT22;2916;49.798;10.022;2022-07-29T15:59:41;23.00;33.10
5779;DHT22;2916;49.798;10.022;2022-07-29T16:02:08;22.90;39.30
5779;DHT22;2916;49.798;10.022;2022-07-29T16:04:36;22.80;55.00
5779;DHT22;2916;49.798;10.022;2022-07-29T16:07:05;22.70;56.30
5779;DHT22;2916;49.798;10.022;2022-07-29T16:09:32;22.50;81.20
5779;DHT22;2916;49.798;10.022;2022-07-29T16:12:00;22.30;86.80
5779;DHT22;2916;49.798;10.022;2022-07-29T16:14:27;22.40;95.90
5779;DHT22;2916;49.798;10.022;2022-07-29T16:16:54;22.30;90.30
5779;DHT22;2916;49.798;10.022;2022-07-29T16:19:22;22.40;99.20
5779;DHT22;2916;49.798;10.022;2022-07-29T16:21:49;22.40;93.30
5779;DHT22;2916;49.798;10.022;2022-07-29T16:24:18;22.40;82.40